createdAt,value
2022-08-03T00:01:36.266Z,8.77
2022-08-03T00:04:38.224Z,8.10
2022-08-03T00:07:41.178Z,9.57
2022-08-03T00:10:43.448Z,9.00
2022-08-03T00:13:45.439Z,8.05
2022-08-03T00:16:47.328Z,8.67
2022-08-03T00:19:49.293Z,8.32
2022-08-03T00:22:51.533Z,8.63
2022-08-03T00:25:53.690Z,8.18
2022-08-03T00:28:56.270Z,9.93
2022-08-03T00:32:00.193Z,10.70
2022-08-03T00:35:08.083Z,8.65
2022-08-03T00:38:11.916Z,9.40
2022-08-03T00:41:15.725Z,9.50
2022-08-03T00:44:17.751Z,8.93
2022-08-03T00:47:19.675Z,9.33
2022-08-03T00:50:23.743Z,8.07
2022-08-03T00:53:25.878Z,9.10
2022-08-03T00:56:27.891Z,11.73
2022-08-03T00:59:30.262Z,9.27
2022-08-03T01:02:32.310Z,10.43
2022-08-03T01:06:07.292Z,9.18
2022-08-03T01:09:17.428Z,10.85
2022-08-03T01:12:29.007Z,9.13
2022-08-03T01:15:54.604Z,9.65
2022-08-03T01:19:21.164Z,10.30
2022-08-03T01:22:49.958Z,8.93
2022-08-03T01:26:04.268Z,10.10
2022-08-03T01:29:43.616Z,9.85
2022-08-03T01:33:02.510Z,9.48
2022-08-03T01:36:09.632Z,11.13
2022-08-03T01:39:12.626Z,9.20
2022-08-03T01:42:17.336Z,11.80
2022-08-03T01:45:21.738Z,12.95
2022-08-03T01:48:25.559Z,8.57
2022-08-03T01:52:03.409Z,10.50
2022-08-03T01:54:53.614Z,10.43
2022-08-03T01:58:05.873Z,9.60
2022-08-03T02:01:10.276Z,10.10
2022-08-03T02:04:14.730Z,13.95
2022-08-03T02:07:17.740Z,12.07
2022-08-03T02:10:30.982Z,9.32
2022-08-03T02:13:38.296Z,9.43
2022-08-03T02:16:40.937Z,9.88
2022-08-03T02:19:44.559Z,10.02
2022-08-03T02:22:47.340Z,11.23
2022-08-03T02:25:57.627Z,10.68
2022-08-03T02:29:07.457Z,9.77
2022-08-03T02:32:14.281Z,9.88
2022-08-03T02:35:19.918Z,11.65
2022-08-03T02:38:27.293Z,10.60
2022-08-03T02:41:41.223Z,9.65
2022-08-03T02:44:48.472Z,11.15
2022-08-03T02:47:55.442Z,10.13
2022-08-03T02:50:59.991Z,12.38
2022-08-03T02:54:04.064Z,9.50
2022-08-03T02:57:09.064Z,9.40
2022-08-03T03:00:12.732Z,11.23
2022-08-03T03:03:23.207Z,10.85
2022-08-03T03:06:29.423Z,11.55
2022-08-03T03:09:41.797Z,10.60
2022-08-03T03:12:46.669Z,10.55
2022-08-03T03:15:49.466Z,9.70
2022-08-03T03:18:52.036Z,11.00
2022-08-03T03:21:55.811Z,10.55
2022-08-03T03:24:58.076Z,11.27
2022-08-03T03:28:02.079Z,10.15
2022-08-03T03:31:06.256Z,12.75
2022-08-03T03:34:08.362Z,14.52
2022-08-03T03:37:10.786Z,14.98
2022-08-03T03:40:14.441Z,10.67
2022-08-03T03:43:18.562Z,11.85
2022-08-03T03:46:20.600Z,10.50
2022-08-03T03:49:22.998Z,11.10
2022-08-03T03:52:24.996Z,14.73
2022-08-03T03:55:27.080Z,12.27
2022-08-03T03:58:30.018Z,10.57
2022-08-03T04:01:32.519Z,12.07
2022-08-03T04:04:53.805Z,10.95
2022-08-03T04:08:24.806Z,12.18
2022-08-03T04:11:45.787Z,10.63
2022-08-03T04:14:49.391Z,12.32
2022-08-03T04:17:53.949Z,13.27
2022-08-03T04:21:01.598Z,13.52
2022-08-03T04:24:06.043Z,12.35
2022-08-03T04:27:11.564Z,10.77
2022-08-03T04:30:15.167Z,10.55
2022-08-03T04:33:19.120Z,11.73
2022-08-03T04:36:24.611Z,10.98
2022-08-03T04:39:29.853Z,12.68
2022-08-03T04:42:33.936Z,12.37
2022-08-03T04:45:36.621Z,10.75
2022-08-03T04:48:43.469Z,11.57
2022-08-03T04:51:47.371Z,11.30
2022-08-03T04:54:50.883Z,9.98
2022-08-03T04:57:53.371Z,10.63
2022-08-03T05:00:55.494Z,9.55
2022-08-03T05:03:57.472Z,10.75
2022-08-03T05:06:59.451Z,12.20
2022-08-03T05:10:16.434Z,9.98
2022-08-03T05:13:19.028Z,10.53
2022-08-03T05:16:20.974Z,9.93
2022-08-03T05:19:22.977Z,13.70
2022-08-03T05:22:24.952Z,10.07
2022-08-03T05:25:27.626Z,12.25
2022-08-03T05:28:29.670Z,11.40
2022-08-03T05:31:31.868Z,10.15
2022-08-03T05:34:34.036Z,10.25
2022-08-03T05:37:35.992Z,9.85
2022-08-03T05:40:39.114Z,9.77
2022-08-03T05:43:48.907Z,11.43
2022-08-03T05:46:51.183Z,9.60
2022-08-03T05:49:53.119Z,9.55
2022-08-03T05:52:58.259Z,11.98
2022-08-03T05:56:03.573Z,10.35
2022-08-03T05:59:37.517Z,10.97
2022-08-03T06:02:39.291Z,9.65
2022-08-03T06:05:44.792Z,9.63
2022-08-03T06:09:02.193Z,11.73
2022-08-03T06:12:04.413Z,10.02
2022-08-03T06:15:07.843Z,10.17
2022-08-03T06:18:13.797Z,11.65
2022-08-03T06:21:16.443Z,10.95
2022-08-03T06:24:18.523Z,11.07
2022-08-03T06:27:31.415Z,12.93
2022-08-03T06:30:40.731Z,16.10
2022-08-03T06:34:31.426Z,11.10
2022-08-03T06:37:05.090Z,10.70
2022-08-03T06:40:07.877Z,11.32
2022-08-03T06:43:12.522Z,10.35
2022-08-03T06:46:14.961Z,9.87
2022-08-03T06:49:17.262Z,10.48
2022-08-03T06:52:37.490Z,10.40
2022-08-03T06:55:42.423Z,12.60
2022-08-03T06:58:44.900Z,9.55
2022-08-03T07:01:47.178Z,12.13
2022-08-03T07:04:49.647Z,10.60
2022-08-03T07:07:55.749Z,10.02
2022-08-03T07:10:58.092Z,10.82
2022-08-03T07:14:00.077Z,9.98
2022-08-03T07:17:04.763Z,9.83
2022-08-03T07:20:15.259Z,8.50
2022-08-03T07:23:19.054Z,9.75
2022-08-03T07:26:21.587Z,10.50
2022-08-03T07:29:23.800Z,10.02
2022-08-03T07:32:26.352Z,10.07
2022-08-03T07:35:28.548Z,11.18
2022-08-03T07:38:30.663Z,11.25
2022-08-03T07:41:32.887Z,11.13
2022-08-03T07:44:34.851Z,9.32
2022-08-03T07:47:36.881Z,11.23
2022-08-03T07:50:39.137Z,10.85
2022-08-03T07:53:41.398Z,10.68
2022-08-03T07:56:49.436Z,9.80
2022-08-03T08:00:01.322Z,9.77
2022-08-03T08:03:14.161Z,10.33
2022-08-03T08:06:16.399Z,10.07
2022-08-03T08:09:18.814Z,10.82
2022-08-03T08:12:21.028Z,10.15
2022-08-03T08:15:23.665Z,11.18
2022-08-03T08:18:25.818Z,10.43
2022-08-03T08:21:27.879Z,8.70
2022-08-03T08:24:50.133Z,9.23
2022-08-03T08:28:22.541Z,10.50
2022-08-03T08:31:16.822Z,9.13
2022-08-03T08:34:18.883Z,9.87
2022-08-03T08:37:20.867Z,9.60
2022-08-03T08:40:24.835Z,10.68
2022-08-03T08:43:28.224Z,8.80
2022-08-03T08:46:33.154Z,8.77
2022-08-03T08:49:37.782Z,9.20
2022-08-03T08:52:46.303Z,8.73
2022-08-03T08:55:56.886Z,12.77
2022-08-03T08:59:02.908Z,7.95
2022-08-03T09:02:06.152Z,7.78
2022-08-03T09:05:13.026Z,8.53
2022-08-03T09:08:15.245Z,8.13
2022-08-03T09:11:51.731Z,9.52
2022-08-03T09:15:00.733Z,7.82
2022-08-03T09:18:06.914Z,8.20
2022-08-03T09:21:31.307Z,7.10
2022-08-03T09:24:41.082Z,8.07
2022-08-03T09:27:46.339Z,10.82
2022-08-03T09:30:59.920Z,8.65
2022-08-03T09:34:07.500Z,8.18
2022-08-03T09:37:16.117Z,7.33
2022-08-03T09:40:34.579Z,7.60
2022-08-03T09:43:47.098Z,8.27
2022-08-03T09:46:56.777Z,7.15
2022-08-03T09:50:03.164Z,7.47
2022-08-03T09:53:05.456Z,6.83
2022-08-03T09:56:33.598Z,7.10
2022-08-03T09:59:32.102Z,8.40
2022-08-03T10:02:35.759Z,8.85
2022-08-03T10:05:40.317Z,7.90
2022-08-03T10:08:42.502Z,7.40
2022-08-03T10:11:46.813Z,7.07
2022-08-03T10:14:48.883Z,8.20
2022-08-03T10:17:50.909Z,7.78
2022-08-03T10:20:55.451Z,6.95
2022-08-03T10:23:57.845Z,7.37
2022-08-03T10:27:03.801Z,6.95
2022-08-03T10:30:11.605Z,7.65
2022-08-03T10:33:49.538Z,7.07
2022-08-03T10:36:42.254Z,6.70
2022-08-03T10:39:54.604Z,7.47
2022-08-03T10:43:03.518Z,7.72
2022-08-03T10:46:08.008Z,6.78
2022-08-03T10:49:33.560Z,7.07
2022-08-03T10:53:09.100Z,7.10
2022-08-03T10:56:53.443Z,7.40
2022-08-03T10:59:58.536Z,7.20
2022-08-03T11:03:08.632Z,8.85
2022-08-03T11:06:20.592Z,8.60
2022-08-03T11:09:22.701Z,9.00
2022-08-03T11:12:33.363Z,9.80
2022-08-03T11:15:35.996Z,6.63
2022-08-03T11:18:56.325Z,6.25
2022-08-03T11:21:59.196Z,7.85
2022-08-03T11:25:02.056Z,6.18
2022-08-03T11:28:26.099Z,6.07
2022-08-03T11:31:49.405Z,8.02
2022-08-03T11:35:15.304Z,6.85
2022-08-03T11:38:19.233Z,8.13
2022-08-03T11:41:34.262Z,6.15
2022-08-03T11:44:47.771Z,7.63
2022-08-03T11:47:55.500Z,6.57
2022-08-03T11:50:57.592Z,6.55
2022-08-03T11:54:05.029Z,6.22
2022-08-03T11:57:07.242Z,6.57
2022-08-03T12:00:32.071Z,7.73
2022-08-03T12:03:34.900Z,6.25
2022-08-03T12:06:55.238Z,6.32
2022-08-03T12:10:13.910Z,5.38
2022-08-03T12:14:44.395Z,5.68
2022-08-03T12:16:40.049Z,7.10
2022-08-03T12:19:43.105Z,8.95
2022-08-03T12:22:45.249Z,6.60
2022-08-03T12:25:48.160Z,5.57
2022-08-03T12:28:51.811Z,5.60
2022-08-03T12:31:53.863Z,6.33
2022-08-03T12:35:00.126Z,6.32
2022-08-03T12:38:03.109Z,5.85
2022-08-03T12:41:16.591Z,6.07
2022-08-03T12:44:18.646Z,5.82
2022-08-03T12:47:20.928Z,7.37
2022-08-03T12:50:31.774Z,5.50
2022-08-03T12:53:33.958Z,7.70
2022-08-03T12:56:56.108Z,5.97
2022-08-03T13:00:21.704Z,6.55
2022-08-03T13:03:49.921Z,6.77
2022-08-03T13:07:02.688Z,7.20
2022-08-03T13:10:08.283Z,6.50
2022-08-03T13:13:10.894Z,6.78
2022-08-03T13:16:18.723Z,6.57
2022-08-03T13:19:21.296Z,5.57
2022-08-03T13:22:25.463Z,6.45
2022-08-03T13:25:27.670Z,7.22
2022-08-03T13:28:29.724Z,6.10
2022-08-03T13:31:31.936Z,6.55
2022-08-03T13:34:33.939Z,5.67
2022-08-03T13:37:36.664Z,6.72
2022-08-03T13:40:41.657Z,7.50
2022-08-03T13:43:43.933Z,6.55
2022-08-03T13:46:47.038Z,7.07
2022-08-03T13:49:54.141Z,6.63
2022-08-03T13:53:04.377Z,6.45
2022-08-03T13:56:06.394Z,6.65
2022-08-03T13:59:08.545Z,5.50
2022-08-03T14:02:10.662Z,8.63
2022-08-03T14:05:12.700Z,7.00
2022-08-03T14:08:14.712Z,7.82
2022-08-03T14:11:17.405Z,6.72
2022-08-03T14:14:19.412Z,6.63
2022-08-03T14:17:23.303Z,6.18
2022-08-03T14:20:38.960Z,5.87
2022-08-03T14:23:48.929Z,5.88
2022-08-03T14:26:50.940Z,6.72
2022-08-03T14:29:53.044Z,5.80
2022-08-03T14:32:59.124Z,7.53
2022-08-03T14:36:02.725Z,9.13
2022-08-03T14:39:05.058Z,7.65
2022-08-03T14:42:07.288Z,6.82
2022-08-03T14:45:20.283Z,6.15
2022-08-03T14:50:31.107Z,5.82
2022-08-03T14:51:51.475Z,5.47
2022-08-03T14:54:55.628Z,6.95
2022-08-03T14:57:57.620Z,7.13
2022-08-03T15:00:59.700Z,5.80
2022-08-03T15:04:01.768Z,5.43
2022-08-03T15:07:04.355Z,5.47
2022-08-03T15:10:07.207Z,7.47
2022-08-03T15:13:12.953Z,7.15
2022-08-03T15:16:14.941Z,6.28
2022-08-03T15:20:03.191Z,6.80
2022-08-03T15:22:40.693Z,6.27
2022-08-03T15:26:28.424Z,6.07
2022-08-03T15:29:09.008Z,7.22
2022-08-03T15:32:30.944Z,6.00
2022-08-03T15:35:33.352Z,7.55
2022-08-03T15:38:35.411Z,5.73
2022-08-03T15:41:37.479Z,5.70
2022-08-03T15:44:39.465Z,7.10
2022-08-03T15:47:41.460Z,6.55
2022-08-03T15:50:44.813Z,7.78
2022-08-03T15:53:46.942Z,5.73
2022-08-03T15:56:48.963Z,5.53
2022-08-03T15:59:51.881Z,5.80
2022-08-03T16:03:02.481Z,6.60
2022-08-03T16:06:09.456Z,6.25
2022-08-03T16:09:22.935Z,6.33
2022-08-03T16:12:33.915Z,5.97
2022-08-03T16:15:37.485Z,6.60
2022-08-03T16:18:41.993Z,7.35
2022-08-03T16:21:48.123Z,6.38
2022-08-03T16:24:54.905Z,5.80
2022-08-03T16:28:07.693Z,7.07
2022-08-03T16:31:14.767Z,7.25
2022-08-03T16:34:16.756Z,7.22
2022-08-03T16:37:38.168Z,7.35
2022-08-03T16:40:41.682Z,6.37
2022-08-03T16:43:43.743Z,5.85
2022-08-03T16:46:45.821Z,6.60
2022-08-03T16:49:55.291Z,5.88
2022-08-03T16:52:58.354Z,8.15
2022-08-03T16:56:00.619Z,6.87
2022-08-03T16:59:03.732Z,6.38
2022-08-03T17:02:10.165Z,5.85
2022-08-03T17:05:12.559Z,8.27
2022-08-03T17:08:16.217Z,7.85
2022-08-03T17:11:21.176Z,7.00
2022-08-03T17:14:29.261Z,8.25
2022-08-03T17:17:37.625Z,5.88
2022-08-03T17:20:57.374Z,8.55
2022-08-03T17:24:27.344Z,7.22
2022-08-03T17:28:49.701Z,11.40
2022-08-03T17:31:23.219Z,6.63
2022-08-03T17:34:34.304Z,10.10
2022-08-03T17:37:58.260Z,8.38
2022-08-03T17:41:00.140Z,12.00
2022-08-03T17:44:15.809Z,10.63
2022-08-03T17:47:29.157Z,6.43
2022-08-03T17:50:51.533Z,6.00
2022-08-03T17:54:18.598Z,9.63
2022-08-03T17:58:02.644Z,7.70
2022-08-03T18:01:23.382Z,7.13
2022-08-03T18:04:45.701Z,8.20
2022-08-03T18:08:02.513Z,11.05
2022-08-03T18:11:09.831Z,8.02
2022-08-03T18:14:42.924Z,7.45
2022-08-03T18:18:10.455Z,7.37
2022-08-03T18:21:16.911Z,7.88
2022-08-03T18:24:20.857Z,11.05
2022-08-03T18:27:45.540Z,13.40
2022-08-03T18:30:53.231Z,10.38
2022-08-03T18:37:25.505Z,9.65
2022-08-03T18:40:28.929Z,14.45
2022-08-03T18:43:46.182Z,16.17
2022-08-03T18:47:01.553Z,10.63
2022-08-03T18:50:33.189Z,9.90
2022-08-03T18:54:03.393Z,7.70
2022-08-03T18:57:12.644Z,8.52
2022-08-03T19:00:24.443Z,13.85
2022-08-03T19:03:43.143Z,9.35
2022-08-03T19:06:48.550Z,9.80
2022-08-03T19:10:09.360Z,7.25
2022-08-03T19:13:35.949Z,12.93
2022-08-03T19:16:41.976Z,10.52
2022-08-03T19:19:46.314Z,9.10
2022-08-03T19:22:51.019Z,7.47
2022-08-03T19:25:53.781Z,8.88
2022-08-03T19:28:57.103Z,7.45
2022-08-03T19:32:01.736Z,12.85
2022-08-03T19:35:05.364Z,7.65
2022-08-03T19:38:16.967Z,10.77
2022-08-03T19:41:42.066Z,7.72
2022-08-03T19:44:55.938Z,13.82
2022-08-03T19:48:09.681Z,10.25
2022-08-03T19:51:12.756Z,11.88
2022-08-03T19:54:16.104Z,7.27
2022-08-03T19:57:22.483Z,7.15
2022-08-03T20:00:26.596Z,9.55
2022-08-03T20:03:43.346Z,11.20
2022-08-03T20:06:47.222Z,7.55
2022-08-03T20:09:56.427Z,8.00
2022-08-03T20:12:59.907Z,8.05
2022-08-03T20:16:04.025Z,9.73
2022-08-03T20:19:14.091Z,8.93
2022-08-03T20:22:20.939Z,7.00
2022-08-03T20:25:37.689Z,11.47
2022-08-03T20:28:50.562Z,7.57
2022-08-03T20:31:55.334Z,7.25
2022-08-03T20:34:58.654Z,7.03
2022-08-03T20:38:01.060Z,8.57
2022-08-03T20:41:04.859Z,8.70
2022-08-03T20:44:07.016Z,5.95
2022-08-03T20:47:10.660Z,7.40
2022-08-03T20:50:17.553Z,7.40
2022-08-03T20:53:56.826Z,7.45
2022-08-03T20:56:49.644Z,6.60
2022-08-03T20:59:53.203Z,7.05
2022-08-03T21:02:55.455Z,7.75
2022-08-03T21:06:07.222Z,6.97
2022-08-03T21:09:17.125Z,7.18
2022-08-03T21:12:42.990Z,9.13
2022-08-03T21:12:58.402Z,10.80
2022-08-03T21:16:02.466Z,8.50
2022-08-03T21:19:11.931Z,6.22
2022-08-03T21:22:16.997Z,11.05
2022-08-03T21:25:27.466Z,6.50
2022-08-03T21:28:29.881Z,6.70
2022-08-03T21:31:32.393Z,11.60
2022-08-03T21:34:36.350Z,7.70
2022-08-03T21:37:40.839Z,7.85
2022-08-03T21:40:43.390Z,7.50
2022-08-03T21:43:45.434Z,6.87
2022-08-03T21:46:49.656Z,7.85
2022-08-03T21:50:06.640Z,6.95
2022-08-03T21:53:12.159Z,6.50
2022-08-03T21:56:20.246Z,7.03
2022-08-03T21:59:23.435Z,6.13
2022-08-03T22:02:32.284Z,7.18
2022-08-03T22:05:43.533Z,6.88
2022-08-03T22:08:47.423Z,6.47
2022-08-03T22:11:54.016Z,6.28
2022-08-03T22:15:01.328Z,7.17
2022-08-03T22:18:04.510Z,6.03
2022-08-03T22:21:08.975Z,9.10
2022-08-03T22:24:11.567Z,6.25
2022-08-03T22:27:32.245Z,6.78
2022-08-03T22:30:35.225Z,6.60
2022-08-03T22:33:38.392Z,6.68
2022-08-03T22:36:40.586Z,7.18
2022-08-03T22:39:43.615Z,6.63
2022-08-03T22:42:46.021Z,10.07
2022-08-03T22:46:10.599Z,6.97
2022-08-03T22:49:12.212Z,7.13
2022-08-03T22:52:15.163Z,7.28
2022-08-03T22:55:18.899Z,7.75
2022-08-03T22:58:26.980Z,8.75
2022-08-03T23:01:29.305Z,8.80
2022-08-03T23:04:33.894Z,9.07
2022-08-03T23:07:38.501Z,8.30
2022-08-03T23:10:47.004Z,7.25
2022-08-03T23:13:54.080Z,7.10
2022-08-03T23:16:58.228Z,8.83
2022-08-03T23:20:06.355Z,8.63
2022-08-03T23:23:09.686Z,7.90
2022-08-03T23:26:13.502Z,8.05
2022-08-03T23:29:16.187Z,8.75
2022-08-03T23:32:20.926Z,8.43
2022-08-03T23:36:28.570Z,9.18
2022-08-03T23:39:04.531Z,7.88
2022-08-03T23:42:06.942Z,11.45
2022-08-03T23:45:09.544Z,8.52
2022-08-03T23:48:12.463Z,6.50
2022-08-03T23:51:35.560Z,8.68
2022-08-03T23:55:00.809Z,6.60
2022-08-03T23:58:25.774Z,8.52
